createdAt,value
2019-01-18T00:00:44.696Z,37.27
2019-01-18T00:03:16.896Z,39.53
2019-01-18T00:06:00.247Z,39.77
2019-01-18T00:08:32.944Z,38.87
2019-01-18T00:11:05.312Z,39.70
2019-01-18T00:13:37.393Z,40.87
2019-01-18T00:16:12.526Z,39.67
2019-01-18T00:18:44.642Z,44.93
2019-01-18T00:21:17.012Z,41.10
2019-01-18T00:23:49.296Z,38.90
2019-01-18T00:26:21.346Z,38.77
2019-01-18T00:28:54.668Z,38.47
2019-01-18T00:31:26.816Z,39.93
2019-01-18T00:34:08.097Z,37.23
2019-01-18T00:36:40.242Z,35.80
2019-01-18T00:39:12.360Z,36.70
2019-01-18T00:41:44.521Z,39.03
2019-01-18T00:44:16.587Z,39.23
2019-01-18T00:46:48.679Z,42.13
2019-01-18T00:49:20.897Z,39.43
2019-01-18T00:51:54.258Z,36.97
2019-01-18T00:54:26.412Z,33.60
2019-01-18T00:56:58.477Z,34.77
2019-01-18T00:59:36.308Z,35.90
2019-01-18T01:02:04.801Z,37.77
2019-01-18T01:04:37.140Z,37.23
2019-01-18T01:07:09.412Z,37.83
2019-01-18T01:09:41.577Z,30.17
2019-01-18T01:12:14.181Z,34.90
2019-01-18T01:14:46.216Z,34.23
2019-01-18T01:17:18.368Z,37.60
2019-01-18T01:19:50.482Z,36.53
2019-01-18T01:22:22.624Z,38.03
2019-01-18T01:24:54.750Z,36.63
2019-01-18T01:27:27.006Z,36.30
2019-01-18T01:29:59.227Z,34.77
2019-01-18T01:32:33.304Z,35.97
2019-01-18T01:35:06.168Z,36.17
2019-01-18T01:37:38.296Z,38.70
2019-01-18T01:40:13.553Z,37.43
2019-01-18T01:42:46.101Z,37.57
2019-01-18T01:45:18.697Z,36.43
2019-01-18T01:47:50.911Z,34.23
2019-01-18T01:50:27.844Z,36.73
2019-01-18T01:53:00.113Z,38.17
2019-01-18T01:55:32.152Z,35.17
2019-01-18T01:58:06.263Z,35.43
2019-01-18T02:00:40.160Z,35.07
2019-01-18T02:03:12.187Z,34.53
2019-01-18T02:05:45.881Z,34.77
2019-01-18T02:08:17.941Z,34.87
2019-01-18T02:10:49.964Z,34.63
2019-01-18T02:13:22.031Z,34.17
2019-01-18T02:15:55.803Z,34.07
2019-01-18T02:18:28.015Z,35.10
2019-01-18T02:21:00.171Z,34.93
2019-01-18T02:23:32.389Z,34.17
2019-01-18T02:26:08.685Z,32.13
2019-01-18T02:28:40.740Z,31.00
2019-01-18T02:31:12.837Z,32.27
2019-01-18T02:33:44.839Z,30.73
2019-01-18T02:36:17.418Z,31.47
2019-01-18T02:38:49.482Z,31.60
2019-01-18T02:41:24.135Z,31.27
2019-01-18T02:43:56.290Z,30.63
2019-01-18T02:46:28.362Z,28.90
2019-01-18T02:49:02.640Z,29.03
2019-01-18T02:51:34.672Z,31.10
2019-01-18T02:54:07.225Z,29.50
2019-01-18T02:56:39.374Z,32.00
2019-01-18T02:59:11.422Z,29.80
2019-01-18T03:01:43.537Z,30.43
2019-01-18T03:04:17.271Z,29.57
2019-01-18T03:06:49.288Z,28.30
2019-01-18T03:09:21.455Z,29.30
2019-01-18T03:11:53.850Z,29.27
2019-01-18T03:14:27.705Z,29.80
2019-01-18T03:17:02.668Z,32.43
2019-01-18T03:19:34.908Z,32.37
2019-01-18T03:22:07.138Z,34.33
2019-01-18T03:24:39.287Z,33.17
2019-01-18T03:27:11.318Z,34.13
2019-01-18T03:29:43.374Z,35.33
2019-01-18T03:32:15.420Z,34.10
2019-01-18T03:34:47.661Z,34.40
2019-01-18T03:37:19.648Z,34.80
2019-01-18T03:39:53.118Z,34.37
2019-01-18T03:42:25.183Z,33.77
2019-01-18T03:44:57.356Z,32.27
2019-01-18T03:47:29.425Z,32.90
2019-01-18T03:50:01.684Z,31.37
2019-01-18T03:52:34.787Z,31.53
2019-01-18T03:55:08.791Z,29.87
2019-01-18T03:57:44.207Z,28.07
2019-01-18T04:00:26.306Z,28.80
2019-01-18T04:02:59.872Z,29.13
2019-01-18T04:05:31.953Z,30.43
2019-01-18T04:08:04.227Z,31.57
2019-01-18T04:10:36.276Z,30.53
2019-01-18T04:13:08.321Z,31.37
2019-01-18T04:15:40.402Z,29.93
2019-01-18T04:18:12.666Z,30.30
2019-01-18T04:20:44.678Z,31.47
2019-01-18T04:23:16.879Z,30.17
2019-01-18T04:25:50.851Z,28.63
2019-01-18T04:28:23.031Z,30.93
2019-01-18T04:30:55.197Z,30.13
2019-01-18T04:33:27.976Z,30.07
2019-01-18T04:36:00.080Z,29.37
2019-01-18T04:38:34.061Z,29.27
2019-01-18T04:41:06.397Z,30.60
2019-01-18T04:43:40.045Z,29.77
2019-01-18T04:46:12.438Z,29.60
2019-01-18T04:48:44.455Z,30.17
2019-01-18T04:51:16.654Z,30.43
2019-01-18T04:53:48.834Z,30.13
2019-01-18T04:56:21.257Z,30.80
2019-01-18T04:58:53.321Z,31.33
2019-01-18T05:01:25.345Z,30.97
2019-01-18T05:03:57.431Z,31.50
2019-01-18T05:06:31.383Z,34.80
2019-01-18T05:09:05.444Z,30.10
2019-01-18T05:11:37.449Z,30.43
2019-01-18T05:14:09.646Z,32.23
2019-01-18T05:16:44.136Z,29.80
2019-01-18T05:19:16.332Z,28.73
2019-01-18T05:21:48.352Z,28.40
2019-01-18T05:24:20.396Z,28.20
2019-01-18T05:26:52.446Z,26.47
2019-01-18T05:29:24.961Z,26.07
2019-01-18T05:31:57.169Z,27.47
2019-01-18T05:34:29.353Z,27.87
2019-01-18T05:37:01.433Z,29.03
2019-01-18T05:39:33.545Z,28.43
2019-01-18T05:42:06.918Z,28.73
2019-01-18T05:44:38.830Z,28.00
2019-01-18T05:47:10.789Z,28.83
2019-01-18T05:49:42.751Z,29.20
2019-01-18T05:52:14.743Z,30.80
2019-01-18T05:54:46.681Z,28.10
2019-01-18T05:57:18.615Z,28.73
2019-01-18T05:59:54.598Z,27.33
2019-01-18T06:02:26.673Z,27.87
2019-01-18T06:04:59.343Z,28.10
2019-01-18T06:07:31.388Z,28.00
2019-01-18T06:10:03.334Z,27.03
2019-01-18T06:12:35.298Z,27.13
2019-01-18T06:15:07.873Z,28.17
2019-01-18T06:17:39.869Z,26.80
2019-01-18T06:20:12.311Z,24.90
2019-01-18T06:22:44.337Z,27.20
2019-01-18T06:25:16.471Z,25.60
2019-01-18T06:27:48.560Z,24.93
2019-01-18T06:30:20.737Z,25.07
2019-01-18T06:32:52.649Z,25.13
2019-01-18T06:35:24.602Z,25.17
2019-01-18T06:37:56.523Z,24.67
2019-01-18T06:40:28.486Z,24.67
2019-01-18T06:43:00.432Z,24.50
2019-01-18T06:45:34.211Z,22.67
2019-01-18T06:48:07.267Z,23.27
2019-01-18T06:50:39.331Z,23.63
2019-01-18T06:53:11.442Z,24.20
2019-01-18T06:55:44.846Z,23.83
2019-01-18T06:58:16.957Z,23.47
2019-01-18T07:00:51.192Z,24.53
2019-01-18T07:03:23.149Z,24.63
2019-01-18T07:05:55.172Z,24.17
2019-01-18T07:08:27.112Z,24.37
2019-01-18T07:10:59.020Z,24.87
2019-01-18T07:13:30.960Z,24.67
2019-01-18T07:16:02.895Z,26.63
2019-01-18T07:18:34.837Z,24.10
2019-01-18T07:21:06.885Z,22.80
2019-01-18T07:23:38.903Z,22.97
2019-01-18T07:26:10.889Z,22.63
2019-01-18T07:28:42.830Z,21.53
2019-01-18T07:31:15.189Z,22.90
2019-01-18T07:33:47.443Z,21.67
2019-01-18T07:36:21.900Z,19.93
2019-01-18T07:38:53.864Z,20.17
2019-01-18T07:41:27.074Z,21.40
2019-01-18T07:43:59.380Z,20.60
2019-01-18T07:46:31.355Z,22.70
2019-01-18T07:49:03.269Z,23.17
2019-01-18T07:51:35.402Z,23.37
2019-01-18T07:54:09.008Z,21.93
2019-01-18T07:56:42.893Z,22.97
2019-01-18T07:59:14.802Z,23.00
2019-01-18T08:01:46.743Z,25.37
2019-01-18T08:04:18.681Z,25.60
2019-01-18T08:06:50.662Z,23.23
2019-01-18T08:09:22.719Z,23.50
2019-01-18T08:11:54.699Z,23.30
2019-01-18T08:14:26.632Z,22.70
2019-01-18T08:16:58.629Z,25.00
2019-01-18T08:19:30.579Z,23.93
2019-01-18T08:22:03.505Z,23.87
2019-01-18T08:24:35.436Z,23.17
2019-01-18T08:27:07.782Z,22.57
2019-01-18T08:29:44.499Z,23.83
2019-01-18T08:32:16.464Z,21.13
2019-01-18T08:34:48.441Z,19.77
2019-01-18T08:37:22.905Z,20.50
2019-01-18T08:39:54.910Z,20.77
2019-01-18T08:42:27.085Z,20.70
2019-01-18T08:44:59.019Z,19.03
2019-01-18T08:47:31.020Z,19.53
2019-01-18T08:50:03.073Z,18.97
2019-01-18T08:52:35.213Z,20.40
2019-01-18T08:55:08.106Z,23.50
2019-01-18T08:57:40.162Z,22.17
2019-01-18T09:00:15.044Z,19.60
2019-01-18T09:02:47.136Z,21.73
2019-01-18T09:05:21.411Z,23.73
2019-01-18T09:07:53.439Z,23.47
2019-01-18T09:10:27.722Z,23.30
2019-01-18T09:13:00.168Z,22.03
2019-01-18T09:15:32.112Z,21.37
2019-01-18T09:18:04.165Z,20.70
2019-01-18T09:20:36.232Z,20.37
2019-01-18T09:23:09.038Z,21.33
2019-01-18T09:25:41.001Z,21.13
2019-01-18T09:28:12.977Z,20.57
2019-01-18T09:30:44.931Z,20.53
2019-01-18T09:33:17.002Z,19.83
2019-01-18T09:35:49.050Z,19.10
2019-01-18T09:38:21.223Z,20.73
2019-01-18T09:40:53.135Z,22.83
2019-01-18T09:43:25.171Z,24.57
2019-01-18T09:45:57.143Z,25.77
2019-01-18T09:48:29.228Z,25.80
2019-01-18T09:51:04.186Z,27.73
2019-01-18T09:53:36.181Z,32.00
2019-01-18T09:56:08.355Z,32.00
2019-01-18T09:58:40.315Z,35.70
2019-01-18T10:01:12.277Z,36.97
2019-01-18T10:03:44.526Z,33.37
2019-01-18T10:06:16.487Z,34.80
2019-01-18T10:08:48.392Z,35.87
2019-01-18T10:11:20.413Z,45.17
2019-01-18T10:13:52.359Z,42.23
2019-01-18T10:16:24.384Z,39.17
2019-01-18T10:18:57.271Z,35.87
2019-01-18T10:21:30.639Z,36.30
2019-01-18T10:24:03.242Z,33.60
2019-01-18T10:26:35.310Z,33.60
2019-01-18T10:29:07.345Z,33.53
2019-01-18T10:31:39.303Z,34.93
2019-01-18T10:34:11.262Z,35.87
2019-01-18T10:36:43.370Z,39.07
2019-01-18T10:39:15.342Z,37.73
2019-01-18T10:41:47.658Z,39.40
2019-01-18T10:44:19.573Z,40.37
2019-01-18T10:46:51.531Z,38.57
2019-01-18T10:49:23.428Z,37.60
2019-01-18T10:51:55.431Z,36.03
2019-01-18T10:54:29.312Z,36.47
2019-01-18T10:57:01.729Z,42.33
2019-01-18T10:59:33.684Z,40.90
2019-01-18T11:02:07.184Z,49.20
2019-01-18T11:04:40.040Z,53.05
2019-01-18T11:07:12.034Z,49.67
2019-01-18T11:09:44.028Z,46.50
2019-01-18T11:12:15.916Z,48.90
2019-01-18T11:14:47.887Z,50.52
2019-01-18T11:17:19.842Z,45.10
2019-01-18T11:19:51.771Z,45.78
2019-01-18T11:22:23.899Z,45.47
2019-01-18T11:24:55.872Z,42.20
2019-01-18T11:27:28.047Z,49.77
2019-01-18T11:30:00.003Z,50.30
2019-01-18T11:32:32.121Z,44.37
2019-01-18T11:35:04.800Z,42.67
2019-01-18T11:37:36.843Z,41.73
2019-01-18T11:40:13.001Z,46.92
2019-01-18T11:42:45.232Z,43.33
2019-01-18T11:45:17.562Z,42.17
2019-01-18T11:47:53.624Z,48.15
2019-01-18T11:50:26.661Z,53.60
2019-01-18T11:52:58.568Z,56.47
2019-01-18T11:55:30.672Z,55.23
2019-01-18T11:58:02.635Z,54.60
2019-01-18T12:00:37.921Z,53.33
2019-01-18T12:03:08.247Z,49.90
2019-01-18T12:05:46.078Z,46.18
2019-01-18T12:08:19.329Z,56.05
2019-01-18T12:10:51.256Z,58.42
2019-01-18T12:13:23.218Z,56.63
2019-01-18T12:15:55.155Z,45.20
2019-01-18T12:18:27.611Z,45.08
2019-01-18T12:21:02.262Z,51.65
2019-01-18T12:23:34.443Z,50.78
2019-01-18T12:26:06.418Z,50.50
2019-01-18T12:28:38.897Z,52.40
2019-01-18T12:31:10.871Z,50.73
2019-01-18T12:33:42.776Z,49.95
2019-01-18T12:36:15.228Z,47.85
2019-01-18T12:38:48.447Z,50.88
2019-01-18T12:41:21.018Z,53.33
2019-01-18T12:43:53.004Z,51.55
2019-01-18T12:46:25.284Z,52.90
2019-01-18T12:48:57.246Z,53.17
2019-01-18T12:51:29.254Z,53.87
2019-01-18T12:54:01.151Z,50.45
2019-01-18T12:56:33.367Z,48.10
2019-01-18T12:59:06.960Z,49.60
2019-01-18T13:01:38.968Z,49.98
2019-01-18T13:04:10.874Z,51.92
2019-01-18T13:06:42.873Z,52.00
2019-01-18T13:09:14.995Z,50.88
2019-01-18T13:11:46.936Z,51.02
2019-01-18T13:14:18.983Z,53.02
2019-01-18T13:16:51.036Z,53.85
2019-01-18T13:19:24.760Z,52.38
2019-01-18T13:21:56.983Z,55.65
2019-01-18T13:24:29.034Z,58.00
2019-01-18T13:27:00.993Z,55.45
2019-01-18T13:29:33.096Z,56.33
2019-01-18T13:32:05.250Z,53.17
2019-01-18T13:34:37.208Z,52.48
2019-01-18T13:37:09.230Z,56.63
2019-01-18T13:39:41.249Z,59.38
2019-01-18T13:42:13.204Z,47.88
2019-01-18T13:44:45.171Z,47.10
2019-01-18T13:47:18.602Z,48.98
2019-01-18T13:49:51.193Z,48.10
2019-01-18T13:52:26.159Z,48.33
2019-01-18T13:54:58.244Z,60.33
2019-01-18T13:57:30.152Z,53.52
2019-01-18T14:00:08.409Z,51.08
2019-01-18T14:02:48.180Z,51.83
2019-01-18T14:05:15.952Z,54.83
2019-01-18T14:07:48.054Z,55.65
2019-01-18T14:10:29.788Z,57.45
2019-01-18T14:13:01.777Z,55.48
2019-01-18T14:15:33.801Z,57.38
2019-01-18T14:18:05.956Z,56.13
2019-01-18T14:20:38.358Z,59.42
2019-01-18T14:23:10.369Z,53.63
2019-01-18T14:25:44.075Z,53.85
2019-01-18T14:28:15.978Z,58.83
2019-01-18T14:30:48.036Z,58.87
2019-01-18T14:33:20.006Z,57.08
2019-01-18T14:35:52.029Z,54.85
2019-01-18T14:38:25.157Z,57.65
2019-01-18T14:40:57.302Z,55.25
2019-01-18T14:43:29.235Z,57.33
2019-01-18T14:46:01.659Z,54.45
2019-01-18T14:48:33.663Z,53.70
2019-01-18T14:51:06.215Z,58.42
2019-01-18T14:53:38.145Z,60.12
2019-01-18T14:56:10.131Z,56.80
2019-01-18T14:58:42.063Z,65.37
2019-01-18T15:01:13.998Z,65.65
2019-01-18T15:03:45.981Z,65.65
2019-01-18T15:06:19.956Z,57.85
2019-01-18T15:08:52.480Z,59.38
2019-01-18T15:11:28.437Z,62.43
2019-01-18T15:14:00.645Z,63.80
2019-01-18T15:16:32.608Z,65.67
2019-01-18T15:19:04.958Z,62.17
2019-01-18T15:21:36.909Z,63.42
2019-01-18T15:24:08.866Z,58.65
2019-01-18T15:26:40.766Z,56.70
2019-01-18T15:29:12.725Z,61.70
2019-01-18T15:31:45.731Z,63.38
2019-01-18T15:34:17.689Z,65.00
2019-01-18T15:36:49.707Z,72.27
2019-01-18T15:39:21.680Z,70.75
2019-01-18T15:41:55.524Z,72.12
2019-01-18T15:44:27.588Z,64.65
2019-01-18T15:46:59.512Z,62.08
2019-01-18T15:49:31.929Z,62.80
2019-01-18T15:52:05.826Z,67.60
2019-01-18T15:54:40.690Z,67.67
2019-01-18T15:57:12.634Z,65.57
2019-01-18T15:59:47.463Z,39.10
2019-01-18T16:02:19.370Z,41.58
2019-01-18T16:04:51.374Z,47.00
2019-01-18T16:07:25.828Z,45.10
2019-01-18T16:09:57.827Z,52.20
2019-01-18T16:12:30.085Z,46.33
2019-01-18T16:15:02.055Z,39.78
2019-01-18T16:17:34.060Z,37.65
2019-01-18T16:20:09.199Z,36.48
2019-01-18T16:22:41.225Z,34.00
2019-01-18T16:25:22.613Z,32.15
2019-01-18T16:27:54.572Z,33.80
2019-01-18T16:30:26.776Z,32.93
2019-01-18T16:32:58.740Z,31.23
2019-01-18T16:35:33.655Z,32.83
2019-01-18T16:38:07.106Z,34.70
2019-01-18T16:40:39.243Z,33.80
2019-01-18T16:43:25.182Z,32.85
2019-01-18T16:45:57.328Z,33.73
2019-01-18T16:48:29.620Z,32.88
2019-01-18T16:51:01.590Z,36.65
2019-01-18T16:53:33.670Z,39.67
2019-01-18T16:56:05.774Z,38.28
2019-01-18T16:58:39.341Z,38.98
2019-01-18T17:01:12.985Z,41.60
2019-01-18T17:03:45.064Z,40.67
2019-01-18T17:06:16.952Z,40.50
2019-01-18T17:08:48.937Z,41.15
2019-01-18T17:11:20.866Z,42.60
2019-01-18T17:13:52.785Z,41.73
2019-01-18T17:16:25.037Z,48.00
2019-01-18T17:18:57.052Z,48.98
2019-01-18T17:21:29.055Z,48.28
2019-01-18T17:24:01.009Z,50.43
2019-01-18T17:26:32.975Z,63.15
2019-01-18T17:29:05.046Z,56.92
2019-01-18T17:31:36.948Z,52.75
2019-01-18T17:34:09.304Z,52.45
2019-01-18T17:36:51.984Z,52.90
2019-01-18T17:39:49.934Z,51.98
2019-01-18T17:43:14.573Z,54.58
2019-01-18T17:45:56.037Z,55.73
2019-01-18T17:48:59.389Z,56.77
2019-01-18T17:52:09.239Z,60.13
2019-01-18T17:55:16.238Z,63.75
2019-01-18T17:58:34.137Z,65.52
2019-01-18T18:02:05.120Z,59.75
2019-01-18T18:05:20.539Z,72.17
2019-01-18T18:08:21.946Z,68.70
2019-01-18T18:11:25.271Z,67.10
2019-01-18T18:14:20.994Z,65.35
2019-01-18T18:17:29.727Z,64.20
2019-01-18T18:20:39.696Z,66.75
2019-01-18T18:23:55.235Z,66.87
2019-01-18T18:27:07.852Z,71.05
2019-01-18T18:30:04.940Z,72.27
2019-01-18T18:33:14.763Z,70.00
2019-01-18T18:36:24.609Z,63.70
2019-01-18T18:39:33.772Z,61.15
2019-01-18T18:42:41.375Z,59.85
2019-01-18T18:45:40.985Z,62.30
2019-01-18T18:48:48.648Z,59.77
2019-01-18T18:52:16.556Z,60.50
2019-01-18T18:55:45.393Z,60.75
2019-01-18T18:59:11.452Z,62.98
2019-01-18T19:02:35.030Z,65.28
2019-01-18T19:05:56.840Z,65.67
2019-01-18T19:09:15.420Z,70.97
2019-01-18T19:12:37.326Z,72.90
2019-01-18T19:15:40.313Z,75.45
2019-01-18T19:18:43.769Z,75.52
2019-01-18T19:21:56.958Z,71.02
2019-01-18T19:25:14.167Z,70.97
2019-01-18T19:28:22.660Z,68.87
2019-01-18T19:31:53.825Z,71.43
2019-01-18T19:35:00.816Z,67.97
2019-01-18T19:38:03.912Z,83.20
2019-01-18T19:40:46.973Z,89.77
2019-01-18T19:43:50.406Z,100.53
2019-01-18T19:46:53.239Z,97.35
2019-01-18T19:50:01.011Z,98.33
2019-01-18T19:53:05.211Z,93.37
2019-01-18T19:56:39.268Z,87.78
2019-01-18T20:00:05.552Z,87.55
2019-01-18T20:03:26.142Z,86.75
2019-01-18T20:06:27.403Z,86.15
2019-01-18T20:09:42.590Z,84.95
2019-01-18T20:12:55.618Z,81.95
2019-01-18T20:16:06.361Z,83.20
2019-01-18T20:19:27.406Z,81.85
2019-01-18T20:22:13.667Z,76.83
2019-01-18T20:25:25.493Z,89.00
2019-01-18T20:28:46.179Z,86.87
2019-01-18T20:31:58.547Z,87.75
2019-01-18T20:35:06.317Z,92.00
2019-01-18T20:38:24.807Z,89.15
2019-01-18T20:41:29.678Z,87.05
2019-01-18T20:44:36.936Z,81.35
2019-01-18T20:47:55.277Z,78.83
2019-01-18T20:51:21.702Z,84.28
2019-01-18T20:54:11.061Z,84.93
2019-01-18T20:56:59.930Z,87.08
2019-01-18T21:00:15.731Z,89.20
2019-01-18T21:03:27.352Z,86.02
2019-01-18T21:06:32.229Z,88.47
2019-01-18T21:09:33.946Z,84.15
2019-01-18T21:12:45.441Z,84.28
2019-01-18T21:15:27.569Z,89.10
2019-01-18T21:18:09.560Z,87.62
2019-01-18T21:21:43.241Z,86.32
2019-01-18T21:24:39.461Z,81.42
2019-01-18T21:27:36.762Z,81.25
2019-01-18T21:30:48.327Z,82.62
2019-01-18T21:33:51.900Z,78.83
2019-01-18T21:36:47.439Z,77.42
2019-01-18T21:39:58.713Z,80.95
2019-01-18T21:43:10.242Z,85.23
2019-01-18T21:46:19.369Z,84.05
2019-01-18T21:49:41.341Z,90.03
2019-01-18T21:52:52.806Z,86.13
2019-01-18T21:56:23.744Z,87.82
2019-01-18T22:00:00.537Z,88.55
2019-01-18T22:03:32.160Z,88.45
2019-01-18T22:06:41.601Z,91.87
2019-01-18T22:09:27.449Z,93.90
2019-01-18T22:12:31.425Z,90.50
2019-01-18T22:15:56.257Z,89.25
2019-01-18T22:18:56.225Z,80.57
2019-01-18T22:22:15.462Z,82.85
2019-01-18T22:25:16.341Z,81.23
2019-01-18T22:28:50.581Z,79.20
2019-01-18T22:31:48.365Z,78.95
2019-01-18T22:34:57.421Z,85.22
2019-01-18T22:37:57.011Z,86.73
2019-01-18T22:41:20.542Z,90.85
2019-01-18T22:44:36.249Z,91.05
2019-01-18T22:48:03.905Z,92.37
2019-01-18T22:51:06.189Z,89.93
2019-01-18T22:54:25.141Z,91.30
2019-01-18T22:57:47.096Z,87.17
2019-01-18T23:01:18.295Z,87.82
2019-01-18T23:04:31.832Z,85.38
2019-01-18T23:07:35.992Z,81.22
2019-01-18T23:10:38.695Z,80.22
2019-01-18T23:13:39.109Z,82.20
2019-01-18T23:16:40.518Z,78.83
2019-01-18T23:19:26.476Z,78.75
2019-01-18T23:22:38.431Z,78.28
2019-01-18T23:25:46.369Z,77.72
2019-01-18T23:28:56.490Z,76.28
2019-01-18T23:32:12.023Z,79.12
2019-01-18T23:35:03.185Z,70.00
2019-01-18T23:38:26.964Z,71.87
2019-01-18T23:41:54.548Z,77.05
2019-01-18T23:45:07.222Z,74.47
2019-01-18T23:48:29.094Z,72.72
2019-01-18T23:51:42.611Z,78.67
2019-01-18T23:54:42.581Z,73.73
2019-01-18T23:57:55.276Z,72.92
